sensor_id;sensor_type;location;lat;lon;timestamp;pressure;altitude;pressure_sealevel;temperature;humidity
50364;BME280;36272;59.400;17.982;2023-01-23T00:03:45;103730.56;;;-2.88;89.74
50364;BME280;36272;59.400;17.982;2023-01-23T00:08:47;103726.22;;;-2.89;90.11
50364;BME280;36272;59.400;17.982;2023-01-23T00:13:50;103708.75;;;-2.88;89.97
50364;BME280;36272;59.400;17.982;2023-01-23T00:18:52;103701.94;;;-2.92;90.22
50364;BME280;36272;59.400;17.982;2023-01-23T00:23:56;103702.75;;;-2.92;90.16
50364;BME280;36272;59.400;17.982;2023-01-23T00:28:58;103707.16;;;-2.92;90.00
50364;BME280;36272;59.400;17.982;2023-01-23T00:34:02;103719.59;;;-2.97;89.78
50364;BME280;36272;59.400;17.982;2023-01-23T00:39:07;103711.84;;;-3.01;89.98
50364;BME280;36272;59.400;17.982;2023-01-23T00:44:09;103723.78;;;-2.93;90.18
50364;BME280;36272;59.400;17.982;2023-01-23T00:49:10;103720.94;;;-2.87;90.13
50364;BME280;36272;59.400;17.982;2023-01-23T00:54:12;103718.00;;;-2.79;89.93
50364;BME280;36272;59.400;17.982;2023-01-23T00:59:14;103719.88;;;-2.83;89.39
50364;BME280;36272;59.400;17.982;2023-01-23T01:04:16;103712.22;;;-2.88;90.12
50364;BME280;36272;59.400;17.982;2023-01-23T01:09:17;103720.69;;;-2.81;90.08
50364;BME280;36272;59.400;17.982;2023-01-23T01:14:19;103723.06;;;-2.75;89.76
50364;BME280;36272;59.400;17.982;2023-01-23T01:19:21;103718.72;;;-2.76;89.53
50364;BME280;36272;59.400;17.982;2023-01-23T01:24:22;103704.94;;;-2.81;89.67
50364;BME280;36272;59.400;17.982;2023-01-23T01:29:24;103702.34;;;-2.81;89.81
50364;BME280;36272;59.400;17.982;2023-01-23T01:34:26;103695.34;;;-2.80;89.38
50364;BME280;36272;59.400;17.982;2023-01-23T01:39:27;103684.38;;;-2.90;89.53
50364;BME280;36272;59.400;17.982;2023-01-23T01:44:56;103685.22;;;-2.90;90.23
50364;BME280;36272;59.400;17.982;2023-01-23T01:50:01;103705.34;;;-2.90;89.06
50364;BME280;36272;59.400;17.982;2023-01-23T01:55:05;103702.16;;;-2.99;89.70
50364;BME280;36272;59.400;17.982;2023-01-23T02:00:14;103689.97;;;-3.00;89.70
50364;BME280;36272;59.400;17.982;2023-01-23T02:05:21;103690.53;;;-2.91;90.18
50364;BME280;36272;59.400;17.982;2023-01-23T02:10:24;103693.94;;;-2.89;89.94
50364;BME280;36272;59.400;17.982;2023-01-23T02:15:26;103686.63;;;-2.81;90.31
50364;BME280;36272;59.400;17.982;2023-01-23T02:20:27;103689.84;;;-2.74;89.97
50364;BME280;36272;59.400;17.982;2023-01-23T02:30:32;103687.03;;;-2.70;90.24
50364;BME280;36272;59.400;17.982;2023-01-23T02:35:34;103685.09;;;-2.64;89.74
50364;BME280;36272;59.400;17.982;2023-01-23T02:40:39;103681.81;;;-2.70;89.58
50364;BME280;36272;59.400;17.982;2023-01-23T02:45:41;103673.94;;;-2.70;89.92
50364;BME280;36272;59.400;17.982;2023-01-23T02:50:43;103677.66;;;-2.75;89.95
50364;BME280;36272;59.400;17.982;2023-01-23T02:55:46;103672.66;;;-2.81;89.76
50364;BME280;36272;59.400;17.982;2023-01-23T03:00:48;103673.59;;;-2.82;89.60
50364;BME280;36272;59.400;17.982;2023-01-23T03:05:50;103660.38;;;-2.79;90.12
50364;BME280;36272;59.400;17.982;2023-01-23T03:10:51;103655.16;;;-2.81;90.15
50364;BME280;36272;59.400;17.982;2023-01-23T03:15:53;103657.78;;;-2.81;89.95
50364;BME280;36272;59.400;17.982;2023-01-23T03:20:55;103654.38;;;-2.83;90.12
50364;BME280;36272;59.400;17.982;2023-01-23T03:25:56;103657.19;;;-2.88;89.62
50364;BME280;36272;59.400;17.982;2023-01-23T03:31:01;103651.47;;;-2.97;89.56
50364;BME280;36272;59.400;17.982;2023-01-23T03:36:03;103657.88;;;-3.05;89.68
50364;BME280;36272;59.400;17.982;2023-01-23T03:41:05;103640.69;;;-3.12;89.73
50364;BME280;36272;59.400;17.982;2023-01-23T03:46:25;103626.47;;;-3.06;89.93
50364;BME280;36272;59.400;17.982;2023-01-23T03:51:27;103636.59;;;-2.97;89.88
50364;BME280;36272;59.400;17.982;2023-01-23T03:56:29;103647.94;;;-2.96;89.43
50364;BME280;36272;59.400;17.982;2023-01-23T04:01:30;103655.97;;;-3.01;89.85
50364;BME280;36272;59.400;17.982;2023-01-23T04:06:32;103649.75;;;-2.99;89.95
50364;BME280;36272;59.400;17.982;2023-01-23T04:11:34;103653.06;;;-2.93;89.46
50364;BME280;36272;59.400;17.982;2023-01-23T04:16:36;103647.06;;;-2.97;89.33
50364;BME280;36272;59.400;17.982;2023-01-23T04:21:37;103661.16;;;-3.00;89.26
50364;BME280;36272;59.400;17.982;2023-01-23T04:26:39;103662.19;;;-3.04;89.29
50364;BME280;36272;59.400;17.982;2023-01-23T04:31:41;103669.25;;;-3.06;89.19
50364;BME280;36272;59.400;17.982;2023-01-23T04:36:43;103669.38;;;-3.09;89.58
50364;BME280;36272;59.400;17.982;2023-01-23T04:41:44;103670.97;;;-3.05;89.41
50364;BME280;36272;59.400;17.982;2023-01-23T04:46:47;103662.34;;;-3.08;89.15
50364;BME280;36272;59.400;17.982;2023-01-23T04:51:51;103659.34;;;-3.21;89.19
50364;BME280;36272;59.400;17.982;2023-01-23T04:56:53;103654.34;;;-3.28;89.22
50364;BME280;36272;59.400;17.982;2023-01-23T05:01:54;103659.59;;;-3.28;89.03
50364;BME280;36272;59.400;17.982;2023-01-23T05:06:56;103660.56;;;-3.30;89.14
50364;BME280;36272;59.400;17.982;2023-01-23T05:11:58;103654.63;;;-3.34;88.87
50364;BME280;36272;59.400;17.982;2023-01-23T05:16:59;103660.91;;;-3.39;89.03
50364;BME280;36272;59.400;17.982;2023-01-23T05:22:01;103660.88;;;-3.38;89.69
50364;BME280;36272;59.400;17.982;2023-01-23T05:27:03;103669.28;;;-3.30;89.21
50364;BME280;36272;59.400;17.982;2023-01-23T05:32:05;103663.38;;;-3.35;88.59
50364;BME280;36272;59.400;17.982;2023-01-23T05:37:06;103655.28;;;-3.52;88.33
50364;BME280;36272;59.400;17.982;2023-01-23T05:42:08;103660.06;;;-3.64;88.55
50364;BME280;36272;59.400;17.982;2023-01-23T05:47:09;103648.97;;;-3.70;88.57
50364;BME280;36272;59.400;17.982;2023-01-23T05:52:11;103669.16;;;-3.74;88.63
50364;BME280;36272;59.400;17.982;2023-01-23T05:57:13;103663.16;;;-3.76;88.55
50364;BME280;36272;59.400;17.982;2023-01-23T06:02:15;103669.28;;;-3.77;88.60
50364;BME280;36272;59.400;17.982;2023-01-23T06:07:18;103670.03;;;-3.74;89.13
50364;BME280;36272;59.400;17.982;2023-01-23T06:12:20;103673.22;;;-3.65;88.86
50364;BME280;36272;59.400;17.982;2023-01-23T06:17:22;103667.13;;;-3.66;88.73
50364;BME280;36272;59.400;17.982;2023-01-23T06:22:23;103652.44;;;-3.70;88.82
50364;BME280;36272;59.400;17.982;2023-01-23T06:27:25;103670.63;;;-3.67;88.92
50364;BME280;36272;59.400;17.982;2023-01-23T06:32:27;103663.78;;;-3.69;88.24
50364;BME280;36272;59.400;17.982;2023-01-23T06:37:28;103668.25;;;-3.73;88.26
50364;BME280;36272;59.400;17.982;2023-01-23T06:42:30;103676.22;;;-3.76;88.11
50364;BME280;36272;59.400;17.982;2023-01-23T06:47:32;103645.78;;;-3.79;88.56
50364;BME280;36272;59.400;17.982;2023-01-23T06:52:33;103653.59;;;-3.77;88.63
50364;BME280;36272;59.400;17.982;2023-01-23T06:57:35;103669.03;;;-3.71;88.80
50364;BME280;36272;59.400;17.982;2023-01-23T07:02:37;103672.41;;;-3.67;88.60
50364;BME280;36272;59.400;17.982;2023-01-23T07:07:39;103681.19;;;-3.68;88.09
50364;BME280;36272;59.400;17.982;2023-01-23T07:12:41;103670.31;;;-3.81;87.75
50364;BME280;36272;59.400;17.982;2023-01-23T07:17:43;103687.06;;;-3.87;88.22
50364;BME280;36272;59.400;17.982;2023-01-23T07:22:45;103689.78;;;-3.90;88.20
50364;BME280;36272;59.400;17.982;2023-01-23T07:27:47;103706.13;;;-3.83;88.94
50364;BME280;36272;59.400;17.982;2023-01-23T07:32:49;103713.81;;;-3.79;88.24
50364;BME280;36272;59.400;17.982;2023-01-23T07:37:51;103720.56;;;-3.73;88.54
50364;BME280;36272;59.400;17.982;2023-01-23T07:42:52;103716.94;;;-3.69;88.00
50364;BME280;36272;59.400;17.982;2023-01-23T07:47:54;103716.94;;;-3.69;88.59
50364;BME280;36272;59.400;17.982;2023-01-23T07:52:56;103713.31;;;-3.65;88.00
50364;BME280;36272;59.400;17.982;2023-01-23T07:57:58;103708.41;;;-3.74;87.98
50364;BME280;36272;59.400;17.982;2023-01-23T08:02:59;103710.19;;;-3.75;88.46
50364;BME280;36272;59.400;17.982;2023-01-23T08:08:01;103720.47;;;-3.70;88.36
50364;BME280;36272;59.400;17.982;2023-01-23T08:13:03;103726.47;;;-3.66;87.76
50364;BME280;36272;59.400;17.982;2023-01-23T08:18:05;103715.69;;;-3.82;87.93
50364;BME280;36272;59.400;17.982;2023-01-23T08:23:07;103723.69;;;-3.87;88.50
50364;BME280;36272;59.400;17.982;2023-01-23T08:28:09;103721.56;;;-3.76;88.39
50364;BME280;36272;59.400;17.982;2023-01-23T08:33:10;103718.03;;;-3.75;87.93
50364;BME280;36272;59.400;17.982;2023-01-23T08:38:13;103720.06;;;-3.83;87.87
50364;BME280;36272;59.400;17.982;2023-01-23T08:43:15;103712.38;;;-3.88;87.54
50364;BME280;36272;59.400;17.982;2023-01-23T08:48:19;103716.63;;;-3.85;88.11
50364;BME280;36272;59.400;17.982;2023-01-23T08:53:21;103714.19;;;-3.90;87.51
50364;BME280;36272;59.400;17.982;2023-01-23T08:58:22;103727.31;;;-3.91;87.11
50364;BME280;36272;59.400;17.982;2023-01-23T09:03:24;103710.97;;;-3.98;87.59
50364;BME280;36272;59.400;17.982;2023-01-23T09:08:26;103722.13;;;-3.93;87.98
50364;BME280;36272;59.400;17.982;2023-01-23T09:13:28;103709.69;;;-3.86;87.87
50364;BME280;36272;59.400;17.982;2023-01-23T09:18:30;103710.66;;;-3.89;87.64
50364;BME280;36272;59.400;17.982;2023-01-23T09:23:32;103702.91;;;-3.92;87.43
50364;BME280;36272;59.400;17.982;2023-01-23T09:28:34;103700.19;;;-3.89;87.93
50364;BME280;36272;59.400;17.982;2023-01-23T09:33:36;103700.91;;;-3.83;87.78
50364;BME280;36272;59.400;17.982;2023-01-23T09:38:38;103696.50;;;-3.83;87.86
50364;BME280;36272;59.400;17.982;2023-01-23T09:43:46;103687.75;;;-3.82;87.71
50364;BME280;36272;59.400;17.982;2023-01-23T09:54:13;103672.13;;;-3.83;87.73
50364;BME280;36272;59.400;17.982;2023-01-23T09:59:36;103674.84;;;-3.86;88.04
50364;BME280;36272;59.400;17.982;2023-01-23T10:04:38;103670.34;;;-3.83;87.70
50364;BME280;36272;59.400;17.982;2023-01-23T10:25:52;103657.41;;;-3.62;87.79
50364;BME280;36272;59.400;17.982;2023-01-23T10:36:34;103651.94;;;-3.56;87.98
50364;BME280;36272;59.400;17.982;2023-01-23T10:41:37;103649.03;;;-3.48;87.22
50364;BME280;36272;59.400;17.982;2023-01-23T10:46:51;103631.63;;;-3.49;87.70
50364;BME280;36272;59.400;17.982;2023-01-23T10:57:29;103631.16;;;-3.37;88.09
50364;BME280;36272;59.400;17.982;2023-01-23T11:02:42;103616.13;;;-3.32;88.17
50364;BME280;36272;59.400;17.982;2023-01-23T11:08:25;103620.16;;;-3.23;88.30
50364;BME280;36272;59.400;17.982;2023-01-23T11:13:30;103606.38;;;-3.06;88.45
50364;BME280;36272;59.400;17.982;2023-01-23T11:18:41;103601.56;;;-2.94;88.52
50364;BME280;36272;59.400;17.982;2023-01-23T11:29:23;103572.34;;;-2.85;88.39
50364;BME280;36272;59.400;17.982;2023-01-23T11:34:29;103573.81;;;-2.78;88.24
50364;BME280;36272;59.400;17.982;2023-01-23T11:44:37;103564.66;;;-2.67;88.02
50364;BME280;36272;59.400;17.982;2023-01-23T12:00:37;103544.09;;;-2.56;88.18
50364;BME280;36272;59.400;17.982;2023-01-23T12:11:31;103543.16;;;-2.55;88.99
50364;BME280;36272;59.400;17.982;2023-01-23T12:21:41;103533.34;;;-2.50;88.72
50364;BME280;36272;59.400;17.982;2023-01-23T12:48:24;103523.63;;;-2.69;88.81
50364;BME280;36272;59.400;17.982;2023-01-23T12:53:31;103520.81;;;-2.64;89.28
50364;BME280;36272;59.400;17.982;2023-01-23T12:58:38;103514.59;;;-2.61;89.13
50364;BME280;36272;59.400;17.982;2023-01-23T13:04:00;103504.94;;;-2.61;88.46
50364;BME280;36272;59.400;17.982;2023-01-23T13:09:21;103504.44;;;-2.69;88.92
50364;BME280;36272;59.400;17.982;2023-01-23T13:19:39;103504.38;;;-2.67;88.90
50364;BME280;36272;59.400;17.982;2023-01-23T13:25:14;103511.78;;;-2.77;88.70
50364;BME280;36272;59.400;17.982;2023-01-23T13:51:42;103488.13;;;-2.76;88.61
50364;BME280;36272;59.400;17.982;2023-01-23T13:56:51;103467.91;;;-2.72;89.21
50364;BME280;36272;59.400;17.982;2023-01-23T14:02:03;103452.88;;;-2.69;89.40
50364;BME280;36272;59.400;17.982;2023-01-23T14:08:11;103457.84;;;-2.62;89.06
50364;BME280;36272;59.400;17.982;2023-01-23T14:13:18;103442.53;;;-2.72;88.80
50364;BME280;36272;59.400;17.982;2023-01-23T14:18:29;103463.31;;;-2.67;89.14
50364;BME280;36272;59.400;17.982;2023-01-23T14:23:35;103466.91;;;-2.70;88.92
50364;BME280;36272;59.400;17.982;2023-01-23T14:28:48;103465.53;;;-2.78;88.58
50364;BME280;36272;59.400;17.982;2023-01-23T14:33:57;103457.81;;;-2.81;88.22
50364;BME280;36272;59.400;17.982;2023-01-23T14:39:03;103454.44;;;-2.85;88.52
50364;BME280;36272;59.400;17.982;2023-01-23T14:44:10;103461.13;;;-2.78;89.15
50364;BME280;36272;59.400;17.982;2023-01-23T14:49:24;103464.13;;;-2.66;89.36
50364;BME280;36272;59.400;17.982;2023-01-23T14:54:27;103467.91;;;-2.72;88.39
50364;BME280;36272;59.400;17.982;2023-01-23T14:59:35;103484.78;;;-2.79;88.62
50364;BME280;36272;59.400;17.982;2023-01-23T15:04:38;103498.84;;;-2.82;88.77
50364;BME280;36272;59.400;17.982;2023-01-23T15:09:42;103486.88;;;-2.88;89.02
50364;BME280;36272;59.400;17.982;2023-01-23T15:14:51;103490.09;;;-2.81;89.25
50364;BME280;36272;59.400;17.982;2023-01-23T15:19:54;103495.16;;;-2.76;89.02
50364;BME280;36272;59.400;17.982;2023-01-23T15:25:24;103484.59;;;-2.75;89.04
50364;BME280;36272;59.400;17.982;2023-01-23T15:30:41;103469.59;;;-2.71;88.85
50364;BME280;36272;59.400;17.982;2023-01-23T15:35:46;103458.25;;;-2.72;88.77
50364;BME280;36272;59.400;17.982;2023-01-23T15:40:47;103458.50;;;-2.78;88.62
50364;BME280;36272;59.400;17.982;2023-01-23T15:45:49;103446.19;;;-2.76;89.39
50364;BME280;36272;59.400;17.982;2023-01-23T15:50:56;103445.22;;;-2.73;89.14
50364;BME280;36272;59.400;17.982;2023-01-23T15:55:59;103451.13;;;-2.68;89.50
50364;BME280;36272;59.400;17.982;2023-01-23T16:01:01;103452.81;;;-2.67;88.81
50364;BME280;36272;59.400;17.982;2023-01-23T16:06:02;103439.75;;;-2.69;88.86
50364;BME280;36272;59.400;17.982;2023-01-23T16:11:04;103435.19;;;-2.63;89.46
50364;BME280;36272;59.400;17.982;2023-01-23T16:16:21;103429.72;;;-2.59;88.73
50364;BME280;36272;59.400;17.982;2023-01-23T16:21:26;103442.25;;;-2.65;88.73
50364;BME280;36272;59.400;17.982;2023-01-23T16:26:29;103434.66;;;-2.72;88.87
50364;BME280;36272;59.400;17.982;2023-01-23T16:31:31;103439.91;;;-2.72;89.22
50364;BME280;36272;59.400;17.982;2023-01-23T16:41:59;103449.69;;;-2.75;88.51
50364;BME280;36272;59.400;17.982;2023-01-23T16:47:01;103449.59;;;-2.74;88.79
50364;BME280;36272;59.400;17.982;2023-01-23T16:52:03;103458.97;;;-2.68;88.64
50364;BME280;36272;59.400;17.982;2023-01-23T16:57:09;103448.75;;;-2.74;88.83
50364;BME280;36272;59.400;17.982;2023-01-23T17:02:26;103451.31;;;-2.73;89.01
50364;BME280;36272;59.400;17.982;2023-01-23T17:07:34;103476.66;;;-2.73;88.84
50364;BME280;36272;59.400;17.982;2023-01-23T17:12:36;103460.72;;;-2.69;89.09
50364;BME280;36272;59.400;17.982;2023-01-23T17:17:38;103465.63;;;-2.61;88.99
50364;BME280;36272;59.400;17.982;2023-01-23T17:22:41;103469.13;;;-2.60;89.20
50364;BME280;36272;59.400;17.982;2023-01-23T17:27:43;103471.38;;;-2.52;89.44
50364;BME280;36272;59.400;17.982;2023-01-23T17:32:53;103462.41;;;-2.47;89.40
50364;BME280;36272;59.400;17.982;2023-01-23T17:37:58;103443.72;;;-2.39;89.59
50364;BME280;36272;59.400;17.982;2023-01-23T17:43:01;103452.28;;;-2.35;89.91
50364;BME280;36272;59.400;17.982;2023-01-23T17:48:12;103446.09;;;-2.34;89.61
50364;BME280;36272;59.400;17.982;2023-01-23T17:53:22;103460.00;;;-2.32;89.68
50364;BME280;36272;59.400;17.982;2023-01-23T17:58:24;103446.63;;;-2.26;89.93
50364;BME280;36272;59.400;17.982;2023-01-23T18:03:31;103457.97;;;-2.26;89.69
50364;BME280;36272;59.400;17.982;2023-01-23T18:08:33;103439.38;;;-2.21;89.58
50364;BME280;36272;59.400;17.982;2023-01-23T18:19:14;103429.13;;;-2.26;89.63
50364;BME280;36272;59.400;17.982;2023-01-23T18:24:26;103428.13;;;-2.23;89.99
50364;BME280;36272;59.400;17.982;2023-01-23T18:45:15;103413.31;;;-2.24;89.66
50364;BME280;36272;59.400;17.982;2023-01-23T18:50:18;103408.84;;;-2.22;89.89
50364;BME280;36272;59.400;17.982;2023-01-23T18:55:40;103399.03;;;-2.18;89.53
50364;BME280;36272;59.400;17.982;2023-01-23T19:01:01;103394.56;;;-2.16;89.86
50364;BME280;36272;59.400;17.982;2023-01-23T19:06:21;103391.13;;;-2.17;89.28
50364;BME280;36272;59.400;17.982;2023-01-23T19:17:28;103364.47;;;-2.27;89.27
50364;BME280;36272;59.400;17.982;2023-01-23T19:22:47;103352.34;;;-2.29;89.36
50364;BME280;36272;59.400;17.982;2023-01-23T19:27:56;103321.03;;;-2.32;89.57
50364;BME280;36272;59.400;17.982;2023-01-23T19:32:58;103326.75;;;-2.24;89.40
50364;BME280;36272;59.400;17.982;2023-01-23T19:37:59;103307.63;;;-2.26;89.19
50364;BME280;36272;59.400;17.982;2023-01-23T19:43:04;103300.53;;;-2.24;89.95
50364;BME280;36272;59.400;17.982;2023-01-23T19:48:05;103317.13;;;-2.23;89.71
50364;BME280;36272;59.400;17.982;2023-01-23T19:53:15;103291.88;;;-2.26;89.71
50364;BME280;36272;59.400;17.982;2023-01-23T19:58:18;103301.06;;;-2.17;90.00
50364;BME280;36272;59.400;17.982;2023-01-23T20:03:20;103298.00;;;-2.08;89.69
50364;BME280;36272;59.400;17.982;2023-01-23T20:08:22;103291.94;;;-2.08;89.55
50364;BME280;36272;59.400;17.982;2023-01-23T20:13:23;103295.94;;;-2.01;89.62
50364;BME280;36272;59.400;17.982;2023-01-23T20:18:25;103295.63;;;-1.95;89.63
50364;BME280;36272;59.400;17.982;2023-01-23T20:23:30;103278.03;;;-1.93;89.96
50364;BME280;36272;59.400;17.982;2023-01-23T20:28:31;103272.63;;;-1.90;89.93
50364;BME280;36272;59.400;17.982;2023-01-23T20:33:33;103270.41;;;-1.80;89.75
50364;BME280;36272;59.400;17.982;2023-01-23T20:38:36;103255.50;;;-1.80;90.16
50364;BME280;36272;59.400;17.982;2023-01-23T20:43:41;103253.41;;;-1.73;90.28
50364;BME280;36272;59.400;17.982;2023-01-23T20:48:46;103261.81;;;-1.66;90.22
50364;BME280;36272;59.400;17.982;2023-01-23T20:53:48;103229.41;;;-1.65;90.37
50364;BME280;36272;59.400;17.982;2023-01-23T20:58:50;103239.41;;;-1.56;90.24
50364;BME280;36272;59.400;17.982;2023-01-23T21:04:11;103220.78;;;-1.51;90.30
50364;BME280;36272;59.400;17.982;2023-01-23T21:09:13;103205.66;;;-1.46;90.12
50364;BME280;36272;59.400;17.982;2023-01-23T21:14:18;103187.94;;;-1.42;90.37
50364;BME280;36272;59.400;17.982;2023-01-23T21:19:23;103183.22;;;-1.36;90.25
50364;BME280;36272;59.400;17.982;2023-01-23T21:24:24;103199.75;;;-1.33;90.46
50364;BME280;36272;59.400;17.982;2023-01-23T21:29:29;103194.41;;;-1.32;90.51
50364;BME280;36272;59.400;17.982;2023-01-23T21:34:31;103182.53;;;-1.23;90.53
50364;BME280;36272;59.400;17.982;2023-01-23T21:39:32;103170.88;;;-1.17;90.43
50364;BME280;36272;59.400;17.982;2023-01-23T21:44:34;103183.81;;;-1.14;90.69
50364;BME280;36272;59.400;17.982;2023-01-23T21:49:36;103157.56;;;-1.14;90.39
50364;BME280;36272;59.400;17.982;2023-01-23T21:54:37;103156.44;;;-1.10;90.59
50364;BME280;36272;59.400;17.982;2023-01-23T21:59:42;103149.31;;;-1.08;90.55
50364;BME280;36272;59.400;17.982;2023-01-23T22:05:04;103142.63;;;-0.98;90.53
50364;BME280;36272;59.400;17.982;2023-01-23T22:10:06;103134.72;;;-0.98;90.83
50364;BME280;36272;59.400;17.982;2023-01-23T22:15:08;103130.16;;;-0.94;90.63
50364;BME280;36272;59.400;17.982;2023-01-23T22:20:11;103128.03;;;-0.87;91.00
50364;BME280;36272;59.400;17.982;2023-01-23T22:25:13;103123.34;;;-0.82;90.61
50364;BME280;36272;59.400;17.982;2023-01-23T22:30:14;103102.91;;;-0.77;90.77
50364;BME280;36272;59.400;17.982;2023-01-23T22:35:16;103107.13;;;-0.75;90.68
50364;BME280;36272;59.400;17.982;2023-01-23T22:40:18;103105.19;;;-0.71;91.11
50364;BME280;36272;59.400;17.982;2023-01-23T22:45:20;103101.47;;;-0.67;91.04
50364;BME280;36272;59.400;17.982;2023-01-23T22:50:22;103106.25;;;-0.59;90.85
50364;BME280;36272;59.400;17.982;2023-01-23T22:55:23;103105.97;;;-0.54;90.87
50364;BME280;36272;59.400;17.982;2023-01-23T23:00:25;103101.47;;;-0.52;90.95
50364;BME280;36272;59.400;17.982;2023-01-23T23:05:26;103114.91;;;-0.42;91.38
50364;BME280;36272;59.400;17.982;2023-01-23T23:10:28;103121.63;;;-0.37;91.00
50364;BME280;36272;59.400;17.982;2023-01-23T23:15:30;103138.06;;;-0.33;90.82
50364;BME280;36272;59.400;17.982;2023-01-23T23:20:32;103139.56;;;-0.29;90.77
50364;BME280;36272;59.400;17.982;2023-01-23T23:25:34;103113.84;;;-0.24;91.19
50364;BME280;36272;59.400;17.982;2023-01-23T23:30:36;103104.91;;;-0.21;91.09
50364;BME280;36272;59.400;17.982;2023-01-23T23:35:37;103103.59;;;-0.14;91.20
50364;BME280;36272;59.400;17.982;2023-01-23T23:40:39;103106.72;;;-0.07;91.36
50364;BME280;36272;59.400;17.982;2023-01-23T23:45:49;103086.41;;;-0.05;91.26
50364;BME280;36272;59.400;17.982;2023-01-23T23:50:52;103069.69;;;-0.04;91.27
50364;BME280;36272;59.400;17.982;2023-01-23T23:55:54;103043.28;;;-0.03;91.33
